Time;durP1;ratioP1;P1;durP2;ratioP2;P2;SDS_P1;SDS_P2;PMS_P1;PMS_P2;Temp;Humidity;BMP_temperature;BMP_pressure;BME280_temperature;BME280_humidity;BME280_pressure;Samples;Min_cycle;Max_cycle;Signal;HPM_P1;HPM_P2
2022/05/12 00:02:08;;;;;;;3.00;2.60;;;23.50;30.40;;;;;;20519;6834;307933;-73
2022/05/12 00:04:34;;;;;;;3.03;2.73;;;23.60;29.70;;;;;;20759;6834;117570;-73
2022/05/12 00:06:59;;;;;;;3.05;2.85;;;23.50;30.00;;;;;;20753;6834;117873;-72
2022/05/12 00:09:25;;;;;;;2.83;2.72;;;23.30;30.20;;;;;;20756;6834;123176;-73
2022/05/12 00:11:50;;;;;;;5.93;2.53;;;23.00;30.40;;;;;;20719;6834;117773;-73
2022/05/12 00:14:16;;;;;;;3.03;2.83;;;22.90;30.90;;;;;;20511;6834;312183;-73
2022/05/12 00:16:41;;;;;;;2.83;2.62;;;23.00;30.50;;;;;;20506;6834;338142;-73
2022/05/12 00:19:07;;;;;;;4.80;3.10;;;23.40;30.40;;;;;;20539;6834;278576;-73
2022/05/12 00:21:34;;;;;;;3.10;2.90;;;23.60;30.10;;;;;;20755;6834;118467;-73
2022/05/12 00:23:59;;;;;;;3.10;2.90;;;23.40;30.40;;;;;;20521;6834;307994;-73
2022/05/12 00:26:27;;;;;;;2.80;2.60;;;23.30;31.30;;;;;;20759;6834;118636;-73
2022/05/12 00:28:52;;;;;;;3.00;2.80;;;23.20;31.20;;;;;;20539;6834;308410;-73
2022/05/12 00:31:18;;;;;;;3.20;2.80;;;23.30;31.10;;;;;;20525;6834;282582;-73
2022/05/12 00:33:44;;;;;;;3.00;2.80;;;23.50;31.60;;;;;;20523;6834;307438;-73
2022/05/12 00:36:09;;;;;;;4.03;2.90;;;23.70;30.60;;;;;;20732;6834;141197;-73
2022/05/12 00:38:35;;;;;;;2.78;2.50;;;23.50;31.10;;;;;;20539;6834;278274;-73
2022/05/12 00:41:00;;;;;;;2.90;2.70;;;23.50;30.70;;;;;;20755;6834;117379;-73
2022/05/12 00:43:46;;;;;;;3.40;3.10;;;23.30;31.20;;;;;;20537;6834;306319;-73
2022/05/12 00:46:11;;;;;;;3.78;3.00;;;23.40;31.00;;;;;;20518;6834;331298;-73
2022/05/12 00:48:37;;;;;;;2.90;2.70;;;23.70;30.50;;;;;;20513;6834;341083;-73
2022/05/12 00:51:03;;;;;;;3.17;2.87;;;23.70;30.50;;;;;;20750;6834;118938;-73
2022/05/12 00:53:29;;;;;;;3.20;2.73;;;23.50;30.90;;;;;;20537;6832;325502;-72
2022/05/12 00:55:54;;;;;;;3.67;3.00;;;23.40;31.00;;;;;;20541;6833;308227;-73
2022/05/12 00:58:20;;;;;;;3.00;2.80;;;23.50;31.00;;;;;;20741;6833;122622;-73
2022/05/12 01:00:45;;;;;;;2.75;2.62;;;23.30;31.40;;;;;;20534;6833;309925;-73
2022/05/12 01:03:11;;;;;;;2.93;2.80;;;23.30;31.50;;;;;;20750;6833;118899;-73
2022/05/12 01:05:36;;;;;;;2.90;2.80;;;23.10;31.90;;;;;;20532;6833;283083;-73
2022/05/12 01:08:02;;;;;;;2.92;2.72;;;23.10;31.90;;;;;;20523;6833;318061;-73
2022/05/12 01:10:29;;;;;;;3.22;2.92;;;23.30;31.80;;;;;;20754;6833;117382;-73
2022/05/12 01:12:53;;;;;;;2.93;2.70;;;23.00;32.10;;;;;;20745;6834;117232;-73
2022/05/12 01:15:19;;;;;;;3.20;3.00;;;22.70;32.40;;;;;;20755;6834;118912;-73
2022/05/12 01:17:44;;;;;;;2.90;2.80;;;22.50;32.80;;;;;;20745;6834;117790;-73
2022/05/12 01:20:11;;;;;;;3.05;2.80;;;22.20;33.30;;;;;;20520;6834;278002;-73
2022/05/12 01:22:52;;;;;;;3.10;2.80;;;22.40;33.10;;;;;;20525;6834;312281;-73
2022/05/12 01:25:17;;;;;;;3.97;3.07;;;22.70;32.60;;;;;;20539;6834;307639;-73
2022/05/12 01:27:43;;;;;;;4.15;2.87;;;23.00;32.60;;;;;;20739;6834;119176;-73
2022/05/12 01:30:09;;;;;;;3.10;3.00;;;22.90;32.70;;;;;;20727;6834;118193;-73
2022/05/12 01:32:34;;;;;;;3.10;2.83;;;22.50;33.00;;;;;;20732;6834;118615;-73
2022/05/12 01:35:01;;;;;;;3.10;2.90;;;22.10;33.60;;;;;;20748;6834;117724;-73
2022/05/12 01:37:26;;;;;;;2.95;2.75;;;22.10;33.50;;;;;;20538;6834;277860;-73
2022/05/12 01:39:52;;;;;;;3.00;2.80;;;22.30;33.00;;;;;;20537;6834;308370;-73
2022/05/12 01:42:17;;;;;;;3.40;2.40;;;22.70;32.80;;;;;;20724;6834;122023;-73
2022/05/12 01:44:43;;;;;;;2.90;2.70;;;22.60;32.90;;;;;;20541;6834;278440;-73
2022/05/12 01:47:08;;;;;;;3.40;3.20;;;22.70;32.60;;;;;;20761;6834;122062;-73
2022/05/12 01:49:34;;;;;;;3.12;3.00;;;22.60;32.90;;;;;;20529;6834;307240;-73
2022/05/12 01:52:00;;;;;;;3.67;2.85;;;22.70;32.70;;;;;;20510;6834;311455;-73
2022/05/12 01:54:25;;;;;;;3.30;2.95;;;22.90;32.30;;;;;;20540;6834;307334;-73
2022/05/12 01:56:51;;;;;;;3.13;2.93;;;23.10;32.10;;;;;;20744;6834;117295;-73
2022/05/12 01:59:18;;;;;;;3.43;3.13;;;22.90;32.60;;;;;;20535;6834;307599;-73
2022/05/12 02:01:52;;;;;;;3.30;3.00;;;22.90;32.30;;;;;;20792;6653;117174;-93
2022/05/12 02:04:24;;;;;;;3.10;2.90;;;22.70;32.60;;;;;;20780;6757;118814;-73
2022/05/12 02:07:00;;;;;;;3.77;2.80;;;22.40;33.10;;;;;;20602;6756;280521;-73
2022/05/12 02:09:35;;;;;;;3.20;2.90;;;22.50;32.80;;;;;;20594;6756;276515;-73
2022/05/12 02:12:11;;;;;;;2.93;2.77;;;22.80;32.90;;;;;;20481;6757;295118;-73
2022/05/12 02:14:47;;;;;;;3.77;3.03;;;23.10;32.00;;;;;;20600;6757;311064;-73
2022/05/12 02:17:23;;;;;;;3.72;2.83;;;23.10;32.00;;;;;;20532;6779;307724;-73
2022/05/12 02:19:58;;;;;;;3.03;2.93;;;23.20;32.10;;;;;;20792;6757;118104;-74
2022/05/12 02:22:34;;;;;;;3.40;3.20;;;22.90;32.50;;;;;;20407;6779;309334;-73
2022/05/12 02:25:09;;;;;;;3.17;2.97;;;22.80;32.50;;;;;;20635;6746;330330;-73
2022/05/12 02:27:46;;;;;;;3.20;2.90;;;23.00;32.30;;;;;;20853;6746;117047;-73
2022/05/12 02:30:27;;;;;;;3.17;2.97;;;22.70;32.60;;;;;;20617;6746;306907;-73
2022/05/12 02:33:02;;;;;;;3.27;3.07;;;22.70;32.60;;;;;;20847;6746;121156;-73
2022/05/12 02:35:38;;;;;;;3.00;2.80;;;22.50;33.10;;;;;;20854;6746;120884;-73
2022/05/12 02:38:13;;;;;;;3.13;2.93;;;22.20;33.50;;;;;;20834;6746;118684;-73
2022/05/12 02:40:49;;;;;;;3.17;2.83;;;21.90;34.00;;;;;;20825;6746;117057;-72
2022/05/12 02:43:25;;;;;;;3.53;2.90;;;21.70;34.30;;;;;;20630;6746;310890;-73
2022/05/12 02:46:03;;;;;;;2.80;2.70;;;22.00;33.40;;;;;;20821;6746;118219;-74
2022/05/12 02:48:42;;;;;;;3.37;3.17;;;22.00;34.00;;;;;;20832;6746;117672;-73
2022/05/12 02:51:17;;;;;;;2.73;2.53;;;21.80;34.30;;;;;;20676;6748;117102;-73
2022/05/12 02:53:54;;;;;;;2.77;2.53;;;21.90;33.90;;;;;;20631;6748;280156;-73
2022/05/12 02:56:29;;;;;;;3.60;2.75;;;21.90;33.90;;;;;;20611;6747;307217;-72
2022/05/12 02:59:05;;;;;;;3.20;3.00;;;22.30;33.40;;;;;;20839;6748;117024;-73
2022/05/12 03:01:40;;;;;;;3.50;3.10;;;22.20;33.80;;;;;;20730;6748;116992;-73
2022/05/12 03:04:17;;;;;;;4.27;3.00;;;22.10;33.70;;;;;;20602;6748;436271;-73
2022/05/12 03:06:52;;;;;;;3.00;2.70;;;22.00;33.70;;;;;;20842;6748;117454;-73
2022/05/12 03:09:28;;;;;;;2.70;2.60;;;22.00;34.10;;;;;;20845;6748;118995;-73
2022/05/12 03:12:04;;;;;;;4.20;2.90;;;21.70;34.50;;;;;;20688;6748;119292;-73
2022/05/12 03:14:39;;;;;;;2.97;2.78;;;21.60;34.90;;;;;;20614;6748;306805;-73
2022/05/12 03:17:15;;;;;;;3.40;2.90;;;21.80;34.20;;;;;;20829;6748;117019;-73
2022/05/12 03:19:50;;;;;;;3.17;2.87;;;21.70;34.50;;;;;;20622;6747;282355;-73
2022/05/12 03:22:27;;;;;;;2.90;2.70;;;21.90;34.00;;;;;;20632;6747;122066;-73
2022/05/12 03:25:02;;;;;;;3.23;2.90;;;22.00;34.80;;;;;;20625;6747;277521;-73
2022/05/12 03:27:38;;;;;;;3.20;2.90;;;22.00;34.30;;;;;;20617;6747;336384;-73
2022/05/12 03:30:14;;;;;;;3.33;3.13;;;22.30;34.00;;;;;;20599;6747;277660;-73
2022/05/12 03:32:49;;;;;;;3.33;2.90;;;22.40;33.90;;;;;;20447;6747;307512;-73
2022/05/12 03:35:25;;;;;;;3.33;3.05;;;22.50;34.80;;;;;;20547;6759;338427;-72
2022/05/12 03:38:06;;;;;;;3.77;2.90;;;22.50;34.40;;;;;;20746;6764;122923;-73
2022/05/12 03:40:37;;;;;;;3.53;3.30;;;22.00;34.60;;;;;;20520;6776;306543;-73
2022/05/12 03:44:46;;;;;;;3.23;3.03;;;21.90;35.30;;;;;;20731;6778;117733;-74
2022/05/12 03:45:48;;;;;;;3.40;3.20;;;21.60;35.60;;;;;;20548;6823;306660;-71
2022/05/12 03:48:24;;;;;;;3.40;3.20;;;21.50;36.10;;;;;;20547;6765;277492;-75
2022/05/12 03:50:59;;;;;;;3.20;3.00;;;21.60;35.90;;;;;;20529;6765;282140;-75
2022/05/12 03:53:36;;;;;;;3.55;3.10;;;21.80;36.80;;;;;;20595;6765;335068;-75
2022/05/12 03:56:11;;;;;;;3.23;3.03;;;21.80;36.80;;;;;;20811;6774;120965;-75
2022/05/12 03:58:47;;;;;;;3.10;2.87;;;21.60;36.90;;;;;;20817;6767;117072;-73
2022/05/12 04:01:22;;;;;;;3.43;3.13;;;21.10;37.00;;;;;;20538;6765;282584;-73
2022/05/12 04:03:58;;;;;;;3.25;3.10;;;21.20;38.30;;;;;;20648;6751;333006;-73
2022/05/12 04:06:35;;;;;;;3.50;3.20;;;21.50;37.30;;;;;;20792;6774;120944;-72
2022/05/12 04:09:10;;;;;;;3.17;2.97;;;21.30;37.30;;;;;;20573;6774;308675;-73
2022/05/12 04:11:46;;;;;;;4.00;3.60;;;21.30;37.80;;;;;;20460;6782;309312;-73
2022/05/12 04:14:22;;;;;;;3.23;3.03;;;21.60;37.40;;;;;;20595;6758;277723;-73
2022/05/12 04:17:01;;;;;;;3.53;3.33;;;21.60;37.40;;;;;;20806;6761;118034;-73
2022/05/12 04:19:37;;;;;;;4.47;3.30;;;21.40;37.30;;;;;;20839;6752;117059;-72
2022/05/12 04:22:13;;;;;;;3.63;3.43;;;21.00;37.60;;;;;;20704;6752;134135;-73
2022/05/12 04:24:48;;;;;;;3.50;3.17;;;20.60;37.80;;;;;;20791;6762;117634;-73
2022/05/12 04:27:23;;;;;;;3.23;2.87;;;20.40;38.30;;;;;;20730;6799;118594;-74
2022/05/12 04:29:59;;;;;;;3.40;3.20;;;20.30;38.60;;;;;;20513;6796;309580;-75
2022/05/12 04:32:34;;;;;;;3.20;2.90;;;20.50;38.80;;;;;;20397;6797;309890;-75
2022/05/12 04:35:11;;;;;;;3.37;3.07;;;21.00;38.30;;;;;;20528;6774;308276;-75
2022/05/12 04:37:46;;;;;;;3.20;3.00;;;21.30;38.00;;;;;;20558;6786;310129;-75
2022/05/12 04:40:24;;;;;;;3.30;3.00;;;21.50;37.80;;;;;;20496;6786;277125;-74
2022/05/12 04:43:01;;;;;;;3.50;3.20;;;21.80;37.60;;;;;;20300;6860;311442;-76
2022/05/12 04:45:36;;;;;;;3.17;2.97;;;21.70;37.50;;;;;;20527;6789;306053;-76
2022/05/12 04:48:13;;;;;;;3.47;3.17;;;21.90;38.10;;;;;;20700;6786;122247;-76
2022/05/12 04:50:48;;;;;;;3.57;3.27;;;21.60;38.00;;;;;;20714;6786;118955;-75
2022/05/12 04:53:24;;;;;;;3.80;3.53;;;21.20;38.40;;;;;;20824;6761;123528;-76
2022/05/12 04:55:59;;;;;;;7.10;3.57;;;21.00;38.60;;;;;;20814;6755;118309;-76
2022/05/12 05:01:21;;;;;;;3.53;3.33;;;20.60;38.90;;;;;;20200;6804;305549;-93
2022/05/12 05:03:51;;;;;;;3.40;3.10;;;21.00;38.70;;;;;;20840;6748;117666;-75
2022/05/12 05:06:27;;;;;;;3.63;3.10;;;21.00;38.40;;;;;;20616;6748;310109;-79
2022/05/12 05:09:02;;;;;;;3.10;2.90;;;21.30;38.10;;;;;;20856;6748;117128;-79
2022/05/12 05:11:38;;;;;;;3.27;3.00;;;21.30;38.10;;;;;;20739;6748;117435;-77
2022/05/12 05:14:13;;;;;;;3.30;3.00;;;21.10;38.30;;;;;;20626;6748;277249;-76
2022/05/12 05:16:49;;;;;;;3.37;3.08;;;21.30;37.80;;;;;;20645;6748;306753;-76
2022/05/12 05:19:25;;;;;;;3.13;2.93;;;21.70;37.90;;;;;;20858;6748;118966;-76
2022/05/12 05:22:00;;;;;;;3.00;2.90;;;21.60;37.60;;;;;;20692;6748;127140;-75
2022/05/12 05:24:36;;;;;;;3.90;2.87;;;21.40;37.80;;;;;;20767;6775;117889;-75
2022/05/12 05:27:14;;;;;;;3.50;3.20;;;21.20;38.30;;;;;;20798;6766;117129;-75
2022/05/12 05:29:49;;;;;;;2.80;2.53;;;21.00;38.60;;;;;;20759;6766;117232;-76
2022/05/12 05:32:24;;;;;;;3.30;3.00;;;21.00;38.90;;;;;;20715;6745;117482;-75
2022/05/12 05:34:59;;;;;;;2.80;2.70;;;21.00;39.00;;;;;;20911;6730;116833;-75
2022/05/12 05:37:36;;;;;;;3.33;3.10;;;20.90;39.10;;;;;;20696;6730;306521;-75
2022/05/12 05:40:13;;;;;;;3.53;2.83;;;21.30;38.70;;;;;;20846;6730;127072;-74
2022/05/12 05:42:46;;;;;;;4.00;3.00;;;21.50;38.70;;;;;;20831;6758;117625;-75
2022/05/12 05:45:22;;;;;;;3.73;3.10;;;21.30;38.70;;;;;;20890;6786;117100;-75
2022/05/12 05:47:58;;;;;;;3.23;2.90;;;21.30;39.00;;;;;;20571;6751;306437;-76
2022/05/12 05:53:30;;;;;;;3.10;2.80;;;22.10;38.40;;;;;;20773;6759;117305;-78
2022/05/12 05:56:05;;;;;;;3.87;3.40;;;22.10;38.40;;;;;;20600;6767;317373;-75
2022/05/12 05:58:41;;;;;;;3.17;3.03;;;22.40;38.90;;;;;;20844;6751;117530;-76
2022/05/12 06:01:17;;;;;;;3.47;3.20;;;22.40;38.80;;;;;;20730;6749;117068;-75
2022/05/12 06:03:53;;;;;;;3.30;3.00;;;22.30;39.10;;;;;;20803;6749;117722;-74
2022/05/12 06:06:27;;;;;;;3.43;3.20;;;22.20;39.50;;;;;;20835;6745;117508;-72
2022/05/12 06:09:03;;;;;;;3.30;3.10;;;22.20;39.70;;;;;;20502;6788;277456;-75
2022/05/12 06:11:39;;;;;;;4.10;2.93;;;22.50;40.00;;;;;;20684;6760;117104;-76
2022/05/12 06:14:14;;;;;;;3.50;3.20;;;22.60;39.70;;;;;;20459;6777;295535;-74
2022/05/12 06:16:50;;;;;;;4.57;3.30;;;23.00;39.60;;;;;;20537;6778;278305;-78
2022/05/12 06:19:26;;;;;;;3.20;2.90;;;23.80;38.50;;;;;;20566;6778;307194;-74
2022/05/12 06:22:02;;;;;;;4.70;3.00;;;23.70;38.40;;;;;;20502;6803;117597;-73
2022/05/12 06:24:38;;;;;;;3.23;3.03;;;23.70;38.50;;;;;;20759;6778;117390;-73
2022/05/12 06:27:16;;;;;;;3.43;3.20;;;23.50;38.90;;;;;;20853;6748;117666;-73
2022/05/12 06:29:51;;;;;;;3.53;3.23;;;23.40;39.60;;;;;;20771;6822;117163;-72
2022/05/12 06:32:27;;;;;;;3.40;3.10;;;23.60;40.20;;;;;;20356;6781;280713;-72
2022/05/12 06:35:03;;;;;;;3.22;2.92;;;24.40;39.20;;;;;;20554;6764;345591;-72
2022/05/12 06:37:38;;;;;;;3.70;3.40;;;25.30;38.70;;;;;;20758;6766;117145;-72
2022/05/12 06:40:14;;;;;;;3.43;3.13;;;25.70;38.40;;;;;;20661;6784;117679;-73
2022/05/12 06:42:50;;;;;;;3.20;3.00;;;26.40;38.10;;;;;;20601;6763;280643;-72
2022/05/12 06:45:29;;;;;;;3.33;3.00;;;26.30;38.00;;;;;;20591;6763;276920;-74
2022/05/12 06:48:04;;;;;;;3.00;2.80;;;27.00;36.60;;;;;;20586;6759;290989;-72
2022/05/12 06:50:37;;;;;;;2.83;2.63;;;27.50;35.90;;;;;;20742;6759;117854;-73
2022/05/12 06:53:13;;;;;;;6.13;3.23;;;27.90;35.20;;;;;;20576;6759;312412;-72
2022/05/12 06:55:49;;;;;;;5.13;3.00;;;27.90;34.90;;;;;;20615;6744;289313;-74
2022/05/12 06:58:24;;;;;;;3.00;2.50;;;28.10;34.30;;;;;;20802;6759;117138;-75
2022/05/12 07:01:00;;;;;;;2.97;2.60;;;27.90;35.00;;;;;;20733;6763;117103;-71
2022/05/12 07:03:44;;;;;;;3.20;3.00;;;27.50;34.80;;;;;;20866;6745;118499;-71
2022/05/12 07:06:11;;;;;;;2.90;2.70;;;27.10;35.20;;;;;;20644;6745;275762;-71
2022/05/12 07:08:47;;;;;;;3.40;3.10;;;27.10;35.80;;;;;;20629;6745;334642;-70
2022/05/12 07:11:23;;;;;;;4.03;2.90;;;27.40;35.60;;;;;;20509;6763;334125;-71
2022/05/12 07:13:58;;;;;;;3.13;2.50;;;27.50;34.30;;;;;;20748;6775;118654;-72
2022/05/12 07:16:33;;;;;;;3.83;2.80;;;27.10;34.30;;;;;;20596;6766;298115;-75
2022/05/12 07:19:14;;;;;;;3.77;3.00;;;27.00;35.00;;;;;;20605;6757;310369;-71
2022/05/12 07:27:37;;;;;;;3.35;3.10;;;27.70;34.50;;;;;;20563;6772;339702;-74
2022/05/12 07:30:13;;;;;;;3.33;3.03;;;27.60;34.40;;;;;;20751;6772;118667;-74
2022/05/12 07:32:49;;;;;;;3.67;2.93;;;27.60;34.50;;;;;;20774;6775;117393;-73
2022/05/12 07:35:24;;;;;;;3.13;2.93;;;27.40;34.30;;;;;;20566;6775;288730;-75
2022/05/12 07:38:01;;;;;;;3.23;3.03;;;28.10;33.10;;;;;;20459;6801;302720;-76
2022/05/12 07:40:36;;;;;;;3.20;2.90;;;28.10;32.40;;;;;;20585;6749;307704;-75
2022/05/12 07:43:12;;;;;;;3.37;3.07;;;28.40;32.70;;;;;;20898;6730;116985;-73
2022/05/12 07:45:47;;;;;;;5.80;3.13;;;28.30;32.80;;;;;;20859;6730;117118;-72
2022/05/12 07:48:23;;;;;;;5.70;2.93;;;28.00;32.90;;;;;;20831;6747;118728;-70
2022/05/12 07:50:59;;;;;;;3.17;2.97;;;27.90;33.10;;;;;;20801;6747;117358;-70
2022/05/12 07:53:34;;;;;;;4.30;3.40;;;27.70;33.10;;;;;;20828;6747;118971;-71
2022/05/12 07:56:10;;;;;;;5.30;3.10;;;27.40;33.40;;;;;;20600;6763;307386;-70
2022/05/12 07:58:46;;;;;;;3.53;3.23;;;27.60;33.50;;;;;;20805;6763;118340;-71
2022/05/12 08:01:21;;;;;;;3.83;3.43;;;27.70;33.90;;;;;;20457;6775;313795;-70
2022/05/12 08:03:57;;;;;;;4.60;3.23;;;28.00;33.70;;;;;;20812;6758;117026;-70
2022/05/12 08:06:33;;;;;;;3.33;3.00;;;28.10;33.80;;;;;;20811;6757;117281;-69
2022/05/12 08:09:07;;;;;;;5.83;3.03;;;28.10;34.40;;;;;;20800;6759;124633;-69
2022/05/12 08:11:44;;;;;;;5.00;3.30;;;28.10;34.40;;;;;;20473;6757;309038;-69
2022/05/12 08:14:19;;;;;;;3.47;2.97;;;28.60;33.90;;;;;;20576;6759;278483;-69
2022/05/12 08:16:54;;;;;;;3.35;3.10;;;29.30;32.30;;;;;;20665;6741;301692;-69
2022/05/12 08:19:30;;;;;;;3.00;2.77;;;29.80;32.10;;;;;;20915;6725;117465;-69
2022/05/12 08:22:05;;;;;;;3.73;2.90;;;29.90;31.90;;;;;;20729;6725;129280;-70
2022/05/12 08:24:41;;;;;;;3.57;3.27;;;29.90;32.10;;;;;;20717;6725;275985;-69
2022/05/12 08:27:16;;;;;;;4.13;2.90;;;30.10;31.80;;;;;;20697;6725;305300;-69
2022/05/12 08:29:53;;;;;;;6.07;2.83;;;30.70;30.20;;;;;;20713;6725;313684;-69
2022/05/12 08:32:28;;;;;;;4.07;3.17;;;30.70;30.60;;;;;;20488;6796;312343;-70
2022/05/12 08:35:04;;;;;;;3.10;2.73;;;31.00;30.70;;;;;;20707;6725;288656;-70
2022/05/12 08:37:40;;;;;;;4.28;2.92;;;31.10;30.70;;;;;;20437;6774;307594;-70
2022/05/12 08:40:25;;;;;;;3.20;3.00;;;31.10;30.00;;;;;;20482;6770;311772;-70
2022/05/12 08:43:00;;;;;;;3.13;2.67;;;31.20;30.30;;;;;;20552;6834;118409;-69
2022/05/12 08:45:36;;;;;;;4.63;3.00;;;30.80;31.50;;;;;;20479;6801;309118;-69
2022/05/12 08:48:12;;;;;;;2.70;2.60;;;30.80;31.50;;;;;;20690;6792;118302;-69
2022/05/12 08:50:48;;;;;;;3.43;2.67;;;30.70;31.40;;;;;;20681;6792;117724;-69
2022/05/12 08:53:23;;;;;;;3.67;2.70;;;30.50;31.90;;;;;;20806;6762;117043;-69
2022/05/12 08:55:59;;;;;;;3.80;2.80;;;30.40;31.90;;;;;;20785;6762;130739;-70
2022/05/12 08:58:34;;;;;;;3.50;3.00;;;30.30;32.00;;;;;;20744;6774;117299;-69
2022/05/12 09:01:44;;;;;;;6.10;3.10;;;30.30;32.30;;;;;;20683;6774;118183;-69
2022/05/12 09:04:49;;;;;;;3.10;2.90;;;30.40;31.80;;;;;;20615;6744;335496;-69
2022/05/12 09:07:34;;;;;;;4.22;3.03;;;30.80;31.30;;;;;;19980;6816;306915;-70
2022/05/12 09:10:10;;;;;;;3.35;3.05;;;31.30;30.00;;;;;;20608;6744;314442;-70
2022/05/12 09:12:59;;;;;;;3.83;2.90;;;31.50;30.80;;;;;;20635;6744;290532;-70
2022/05/12 09:15:34;;;;;;;3.83;2.50;;;31.60;30.60;;;;;;20857;6743;116904;-70
2022/05/12 09:18:13;;;;;;;3.43;2.90;;;31.50;30.40;;;;;;20835;6744;117879;-70
2022/05/12 09:20:48;;;;;;;6.50;3.20;;;31.10;30.50;;;;;;20777;6744;120928;-70
2022/05/12 09:23:24;;;;;;;4.45;3.00;;;30.80;31.10;;;;;;20633;6744;335916;-71
2022/05/12 09:25:59;;;;;;;3.40;3.10;;;30.80;30.60;;;;;;20846;6744;121133;-71
2022/05/12 09:28:36;;;;;;;5.77;3.00;;;30.70;30.70;;;;;;20836;6742;117246;-71
2022/05/12 09:31:15;;;;;;;3.83;3.10;;;30.50;31.00;;;;;;20616;6722;284261;-71
2022/05/12 09:33:49;;;;;;;4.60;3.20;;;30.60;31.00;;;;;;20722;6723;305478;-70
2022/05/12 09:36:25;;;;;;;3.17;2.83;;;30.80;31.30;;;;;;20855;6745;118230;-71
2022/05/12 09:39:01;;;;;;;6.43;3.40;;;30.80;30.80;;;;;;20936;6723;116736;-70
2022/05/12 09:41:39;;;;;;;5.00;2.90;;;30.70;30.60;;;;;;20779;6723;116903;-70
2022/05/12 09:44:21;;;;;;;3.20;2.93;;;30.60;30.90;;;;;;20852;6742;116977;-71
2022/05/12 09:46:56;;;;;;;3.73;3.37;;;30.60;31.60;;;;;;20867;6742;120747;-71
2022/05/12 09:49:32;;;;;;;4.73;3.50;;;30.60;31.30;;;;;;20651;6742;307683;-71
2022/05/12 09:52:21;;;;;;;4.00;3.37;;;31.40;30.50;;;;;;20517;6742;308114;-71
2022/05/12 09:55:16;;;;;;;5.43;3.20;;;31.30;30.00;;;;;;20865;6742;118004;-70
2022/05/12 09:57:52;;;;;;;4.43;3.40;;;31.40;30.80;;;;;;20707;6742;276958;-70
2022/05/12 10:00:41;;;;;;;3.87;3.20;;;31.80;30.30;;;;;;20603;6742;337810;-70
2022/05/12 10:09:27;;;;;;;5.23;3.93;;;31.30;30.00;;;;;;20669;6742;277238;-70
2022/05/12 10:12:19;;;;;;;4.10;3.80;;;31.30;29.60;;;;;;20520;6742;316676;-70
2022/05/12 10:15:08;;;;;;;3.83;3.37;;;31.50;29.40;;;;;;20807;6761;117154;-69
2022/05/12 10:17:44;;;;;;;4.20;3.83;;;31.30;29.70;;;;;;20810;6757;117060;-70
2022/05/12 10:20:19;;;;;;;3.80;3.53;;;31.00;29.70;;;;;;20819;6757;117683;-70
2022/05/12 10:23:02;;;;;;;4.53;3.80;;;30.80;30.00;;;;;;20627;6757;306500;-71
2022/05/12 10:26:07;;;;;;;4.17;3.73;;;31.00;30.70;;;;;;20845;6757;117438;-70
2022/05/12 10:28:49;;;;;;;4.17;3.57;;;31.10;30.80;;;;;;20841;6757;117136;-70
2022/05/12 10:31:24;;;;;;;3.90;3.50;;;31.00;30.80;;;;;;20567;6758;279043;-72
2022/05/12 10:34:04;;;;;;;4.03;3.63;;;31.10;29.90;;;;;;20920;6722;117385;-71
2022/05/12 10:37:03;;;;;;;4.60;3.60;;;31.10;29.80;;;;;;20692;6722;305832;-70
2022/05/12 10:39:41;;;;;;;3.83;3.53;;;31.30;29.50;;;;;;20922;6722;116932;-70
2022/05/12 10:42:20;;;;;;;4.20;3.80;;;31.10;29.50;;;;;;20477;6722;459171;-71
2022/05/12 10:45:12;;;;;;;4.05;3.60;;;31.00;29.70;;;;;;20630;6742;336502;-70
2022/05/12 10:48:07;;;;;;;4.15;3.80;;;31.30;30.40;;;;;;20594;6754;277671;-70
2022/05/12 10:50:53;;;;;;;3.90;3.60;;;31.50;29.60;;;;;;20735;6778;117486;-70
2022/05/12 10:53:39;;;;;;;3.90;3.60;;;31.10;29.70;;;;;;20815;6751;117050;-71
2022/05/12 10:56:24;;;;;;;6.15;3.90;;;31.00;29.60;;;;;;20558;6772;310495;-71
2022/05/12 10:59:27;;;;;;;7.37;3.73;;;31.20;30.20;;;;;;20801;6765;117182;-71
2022/05/12 11:02:25;;;;;;;4.33;3.87;;;31.10;30.10;;;;;;20677;6752;117911;-70
2022/05/12 11:05:21;;;;;;;4.37;3.43;;;31.00;30.10;;;;;;20791;6752;117245;-70
2022/05/12 11:08:16;;;;;;;4.03;3.70;;;30.70;30.20;;;;;;20162;6799;120804;-71
2022/05/12 11:10:54;;;;;;;3.90;3.70;;;30.60;30.50;;;;;;20827;6738;117333;-71
2022/05/12 11:13:32;;;;;;;4.03;3.80;;;30.40;31.00;;;;;;20881;6738;117587;-71
2022/05/12 11:16:22;;;;;;;4.90;3.93;;;30.20;31.10;;;;;;20812;6757;117222;-71
2022/05/12 11:19:14;;;;;;;4.32;3.92;;;30.10;31.30;;;;;;20656;6738;339504;-71
2022/05/12 11:22:13;;;;;;;4.80;3.80;;;30.40;31.20;;;;;;20557;6738;281650;-71
2022/05/12 11:25:05;;;;;;;4.27;3.67;;;30.80;30.20;;;;;;20873;6738;117061;-71
2022/05/12 11:27:44;;;;;;;6.67;4.17;;;30.80;30.50;;;;;;20857;6738;117079;-69
2022/05/12 11:30:35;;;;;;;4.30;3.90;;;30.60;31.00;;;;;;20772;6757;118237;-69
2022/05/12 11:33:10;;;;;;;3.90;3.70;;;30.40;31.30;;;;;;20831;6752;117036;-69
2022/05/12 11:35:48;;;;;;;4.40;4.10;;;30.30;31.30;;;;;;20805;6757;117213;-69
2022/05/12 11:38:40;;;;;;;3.83;3.53;;;30.30;31.70;;;;;;20599;6753;276687;-70
2022/05/12 11:41:19;;;;;;;4.37;3.87;;;30.80;29.80;;;;;;20526;6752;312975;-70
2022/05/12 11:44:25;;;;;;;4.37;3.70;;;30.80;29.80;;;;;;20600;6756;277119;-69
2022/05/12 11:47:20;;;;;;;4.47;3.93;;;31.00;29.50;;;;;;20613;6756;278054;-69
2022/05/12 11:50:22;;;;;;;4.37;4.05;;;31.10;30.40;;;;;;20594;6756;341327;-69
2022/05/12 11:52:54;;;;;;;3.93;3.70;;;31.40;30.80;;;;;;20825;6752;117557;-70
2022/05/12 11:55:53;;;;;;;4.30;3.90;;;31.20;30.00;;;;;;20864;6741;116957;-69
2022/05/12 11:58:32;;;;;;;4.33;4.03;;;30.90;30.20;;;;;;20498;6812;318029;-69
2022/05/12 12:01:14;;;;;;;4.37;4.07;;;30.90;30.20;;;;;;20795;6737;117443;-69
2022/05/12 12:03:53;;;;;;;4.35;3.80;;;30.80;29.80;;;;;;20561;6821;277108;-70
2022/05/12 12:06:45;;;;;;;7.07;4.53;;;30.70;31.00;;;;;;20799;6756;117521;-69
2022/05/12 12:09:25;;;;;;;4.60;4.30;;;30.80;30.30;;;;;;20502;6791;308055;-71
2022/05/12 12:12:02;;;;;;;4.77;3.60;;;30.80;30.30;;;;;;20609;6791;117590;-69
2022/05/12 12:14:51;;;;;;;4.50;4.10;;;30.80;31.10;;;;;;20093;6777;305915;-69
2022/05/12 12:17:29;;;;;;;4.20;3.90;;;30.80;31.10;;;;;;20548;6777;311182;-69
2022/05/12 12:20:29;;;;;;;3.80;3.60;;;30.90;30.50;;;;;;20557;6770;310162;-69
2022/05/12 12:23:24;;;;;;;4.70;4.10;;;30.90;30.50;;;;;;20496;6771;277281;-69
2022/05/12 12:26:09;;;;;;;4.80;4.40;;;30.90;30.40;;;;;;20388;6791;278028;-69
2022/05/12 12:28:52;;;;;;;4.40;4.00;;;30.90;30.90;;;;;;20515;6786;336918;-69
2022/05/12 12:31:37;;;;;;;4.73;4.20;;;31.10;30.00;;;;;;20673;6771;117190;-69
2022/05/12 12:34:21;;;;;;;6.97;4.30;;;30.80;29.90;;;;;;20759;6765;117624;-69
2022/05/12 12:37:03;;;;;;;4.50;4.10;;;30.80;30.00;;;;;;20569;6765;305934;-69
2022/05/12 12:39:44;;;;;;;4.20;3.83;;;31.00;29.70;;;;;;20780;6765;117037;-69
2022/05/12 12:42:30;;;;;;;4.30;4.00;;;31.00;29.70;;;;;;20433;6765;329492;-69
2022/05/12 12:45:06;;;;;;;4.30;3.90;;;31.00;28.70;;;;;;20852;6750;117065;-69
2022/05/12 12:47:55;;;;;;;4.40;3.90;;;31.00;28.70;;;;;;20825;6755;117142;-69
2022/05/12 12:50:44;;;;;;;6.25;4.15;;;30.80;29.20;;;;;;20587;6752;338911;-69
2022/05/12 12:53:22;;;;;;;3.93;3.60;;;30.90;29.50;;;;;;20830;6755;117300;-70
2022/05/12 12:58:54;;;;;;;4.37;4.07;;;30.60;29.10;;;;;;20596;6767;277054;-70
2022/05/12 13:01:35;;;;;;;4.20;3.90;;;30.70;29.10;;;;;;20496;6756;312490;-70
2022/05/12 13:04:11;;;;;;;4.20;3.80;;;31.00;28.50;;;;;;20601;6756;314653;-71
2022/05/12 13:06:54;;;;;;;4.93;4.17;;;31.20;28.20;;;;;;20816;6759;123513;-71
2022/05/12 13:09:30;;;;;;;4.32;4.00;;;31.10;28.40;;;;;;20612;6761;306283;-69
2022/05/12 13:12:08;;;;;;;5.27;4.10;;;31.00;29.00;;;;;;20658;6741;118006;-71
2022/05/12 13:14:44;;;;;;;5.27;3.73;;;30.90;28.50;;;;;;20860;6756;117046;-72
2022/05/12 13:17:31;;;;;;;4.00;3.70;;;30.60;28.70;;;;;;20802;6756;117120;-71
2022/05/12 13:20:18;;;;;;;4.20;3.90;;;30.30;28.80;;;;;;20577;6756;322704;-71
2022/05/12 13:22:54;;;;;;;4.57;3.80;;;30.40;29.30;;;;;;20605;6756;277137;-71
2022/05/12 13:25:30;;;;;;;4.30;3.90;;;30.80;29.20;;;;;;20605;6756;293285;-71
2022/05/12 13:28:05;;;;;;;4.40;4.00;;;30.80;29.00;;;;;;20595;6756;281755;-70
2022/05/12 13:30:46;;;;;;;4.23;3.70;;;31.00;29.30;;;;;;20774;6756;117339;-70
2022/05/12 13:33:21;;;;;;;6.53;3.97;;;30.80;29.50;;;;;;20822;6756;117049;-71
2022/05/12 13:36:00;;;;;;;4.57;4.03;;;30.50;29.90;;;;;;20597;6756;305823;-71
2022/05/12 13:38:42;;;;;;;4.67;3.60;;;30.50;30.00;;;;;;20796;6817;117197;-71
2022/05/12 13:41:28;;;;;;;4.50;3.97;;;30.40;30.40;;;;;;20539;6741;279988;-71
2022/05/12 13:44:18;;;;;;;9.20;4.18;;;30.70;30.00;;;;;;20568;6756;307496;-72
2022/05/12 13:47:05;;;;;;;4.40;3.87;;;30.70;29.90;;;;;;20582;6759;343806;-71